sensor_id;sensor_type;location;lat;lon;timestamp;pressure;altitude;pressure_sealevel;temperature;humidity
10806;BME280;5455;53.224;6.000;2023-04-07T00:01:39;101385.13;;;7.39;100.00
10806;BME280;5455;53.224;6.000;2023-04-07T00:04:06;101376.56;;;7.40;100.00
10806;BME280;5455;53.224;6.000;2023-04-07T00:06:33;101382.03;;;7.40;100.00
10806;BME280;5455;53.224;6.000;2023-04-07T00:09:00;101381.56;;;7.38;100.00
10806;BME280;5455;53.224;6.000;2023-04-07T00:11:27;101383.97;;;7.40;100.00
10806;BME280;5455;53.224;6.000;2023-04-07T00:13:55;101384.78;;;7.40;100.00
10806;BME280;5455;53.224;6.000;2023-04-07T00:16:22;101373.16;;;7.43;100.00
10806;BME280;5455;53.224;6.000;2023-04-07T00:18:49;101380.59;;;7.43;100.00
10806;BME280;5455;53.224;6.000;2023-04-07T00:21:16;101379.78;;;7.42;100.00
10806;BME280;5455;53.224;6.000;2023-04-07T00:23:43;101375.75;;;7.40;100.00
10806;BME280;5455;53.224;6.000;2023-04-07T00:26:10;101380.44;;;7.39;100.00
10806;BME280;5455;53.224;6.000;2023-04-07T00:28:40;101376.56;;;7.40;100.00
10806;BME280;5455;53.224;6.000;2023-04-07T00:31:07;101372.19;;;7.39;100.00
10806;BME280;5455;53.224;6.000;2023-04-07T00:33:34;101376.09;;;7.38;100.00
10806;BME280;5455;53.224;6.000;2023-04-07T00:36:01;101376.56;;;7.40;100.00
10806;BME280;5455;53.224;6.000;2023-04-07T00:38:29;101374.28;;;7.42;100.00
10806;BME280;5455;53.224;6.000;2023-04-07T00:40:57;101373.81;;;7.40;100.00
10806;BME280;5455;53.224;6.000;2023-04-07T00:43:25;101370.59;;;7.38;100.00
10806;BME280;5455;53.224;6.000;2023-04-07T00:45:53;101366.72;;;7.39;100.00
10806;BME280;5455;53.224;6.000;2023-04-07T00:48:20;101368.34;;;7.40;100.00
10806;BME280;5455;53.224;6.000;2023-04-07T00:50:47;101376.56;;;7.40;100.00
10806;BME280;5455;53.224;6.000;2023-04-07T00:53:15;101377.38;;;7.41;100.00
10806;BME280;5455;53.224;6.000;2023-04-07T00:55:42;101363.19;;;7.39;100.00
10806;BME280;5455;53.224;6.000;2023-04-07T00:58:09;101369.16;;;7.41;100.00
10806;BME280;5455;53.224;6.000;2023-04-07T01:00:48;101377.03;;;7.42;100.00
10806;BME280;5455;53.224;6.000;2023-04-07T01:06:30;101374.94;;;7.39;100.00
10806;BME280;5455;53.224;6.000;2023-04-07T01:12:02;101376.56;;;7.40;100.00
10806;BME280;5455;53.224;6.000;2023-04-07T01:14:26;101370.44;;;7.43;100.00
10806;BME280;5455;53.224;6.000;2023-04-07T01:17:06;101370.75;;;7.42;100.00
10806;BME280;5455;53.224;6.000;2023-04-07T01:19:56;101368.81;;;7.42;100.00
10806;BME280;5455;53.224;6.000;2023-04-07T01:22:41;101365.28;;;7.42;100.00
10806;BME280;5455;53.224;6.000;2023-04-07T01:30:38;101368.03;;;7.42;100.00
10806;BME280;5455;53.224;6.000;2023-04-07T01:33:09;101373.50;;;7.42;100.00
10806;BME280;5455;53.224;6.000;2023-04-07T01:35:37;101376.56;;;7.40;100.00
10806;BME280;5455;53.224;6.000;2023-04-07T01:38:05;101368.81;;;7.42;100.00
10806;BME280;5455;53.224;6.000;2023-04-07T01:40:33;101374.63;;;7.41;100.00
10806;BME280;5455;53.224;6.000;2023-04-07T01:43:01;101382.22;;;7.44;100.00
10806;BME280;5455;53.224;6.000;2023-04-07T01:45:29;101384.94;;;7.44;100.00
10806;BME280;5455;53.224;6.000;2023-04-07T01:47:57;101374.78;;;7.44;100.00
10806;BME280;5455;53.224;6.000;2023-04-07T01:50:25;101370.91;;;7.45;100.00
10806;BME280;5455;53.224;6.000;2023-04-07T01:52:53;101374.13;;;7.47;100.00
10806;BME280;5455;53.224;6.000;2023-04-07T01:55:21;101371.41;;;7.47;100.00
10806;BME280;5455;53.224;6.000;2023-04-07T01:58:05;101371.41;;;7.47;100.00
10806;BME280;5455;53.224;6.000;2023-04-07T02:00:35;101372.69;;;7.50;100.00
10806;BME280;5455;53.224;6.000;2023-04-07T02:03:17;101367.50;;;7.48;100.00
10806;BME280;5455;53.224;6.000;2023-04-07T02:05:49;101374.63;;;7.49;100.00
10806;BME280;5455;53.224;6.000;2023-04-07T02:08:20;101369.78;;;7.46;100.00
10806;BME280;5455;53.224;6.000;2023-04-07T02:10:50;101375.25;;;7.46;100.00
10806;BME280;5455;53.224;6.000;2023-04-07T02:13:19;101377.53;;;7.44;100.00
10806;BME280;5455;53.224;6.000;2023-04-07T02:15:49;101376.38;;;7.45;100.00
10806;BME280;5455;53.224;6.000;2023-04-07T02:18:18;101375.25;;;7.46;100.00
10806;BME280;5455;53.224;6.000;2023-04-07T02:20:46;101377.69;;;7.48;100.00
10806;BME280;5455;53.224;6.000;2023-04-07T02:23:14;101374.63;;;7.49;100.00
10806;BME280;5455;53.224;6.000;2023-04-07T02:25:42;101377.03;;;7.51;100.00
10806;BME280;5455;53.224;6.000;2023-04-07T02:28:09;101374.13;;;7.47;100.00
10806;BME280;5455;53.224;6.000;2023-04-07T02:30:36;101375.25;;;7.46;100.00
10806;BME280;5455;53.224;6.000;2023-04-07T02:33:03;101375.72;;;7.48;100.00
10806;BME280;5455;53.224;6.000;2023-04-07T02:35:30;101376.38;;;7.45;100.00
10806;BME280;5455;53.224;6.000;2023-04-07T02:37:57;101391.88;;;7.50;100.00
10806;BME280;5455;53.224;6.000;2023-04-07T02:40:24;101389.94;;;7.50;100.00
10806;BME280;5455;53.224;6.000;2023-04-07T02:42:52;101380.09;;;7.49;100.00
10806;BME280;5455;53.224;6.000;2023-04-07T02:45:21;101380.09;;;7.49;100.00
10806;BME280;5455;53.224;6.000;2023-04-07T02:47:48;101380.91;;;7.50;100.00
10806;BME280;5455;53.224;6.000;2023-04-07T02:50:16;101383.00;;;7.53;100.00
10806;BME280;5455;53.224;6.000;2023-04-07T02:52:43;101381.72;;;7.50;100.00
10806;BME280;5455;53.224;6.000;2023-04-07T02:55:13;101374.13;;;7.47;100.00
10806;BME280;5455;53.224;6.000;2023-04-07T02:57:41;101387.06;;;7.47;100.00
10806;BME280;5455;53.224;6.000;2023-04-07T03:00:18;101383.84;;;7.45;100.00
10806;BME280;5455;53.224;6.000;2023-04-07T03:02:58;101382.38;;;7.47;100.00
10806;BME280;5455;53.224;6.000;2023-04-07T03:05:29;101393.34;;;7.47;100.00
10806;BME280;5455;53.224;6.000;2023-04-07T03:07:56;101390.75;;;7.51;100.00
10806;BME280;5455;53.224;6.000;2023-04-07T03:10:24;101383.66;;;7.50;100.00
10806;BME280;5455;53.224;6.000;2023-04-07T03:12:51;101394.28;;;7.51;100.00
10806;BME280;5455;53.224;6.000;2023-04-07T03:15:18;101396.72;;;7.53;100.00
10806;BME280;5455;53.224;6.000;2023-04-07T03:17:46;101392.34;;;7.52;100.00
10806;BME280;5455;53.224;6.000;2023-04-07T03:20:15;101391.88;;;7.50;100.00
10806;BME280;5455;53.224;6.000;2023-04-07T03:22:43;101393.50;;;7.51;100.00
10806;BME280;5455;53.224;6.000;2023-04-07T03:25:19;101380.44;;;7.48;100.00
10806;BME280;5455;53.224;6.000;2023-04-07T03:27:49;101391.72;;;7.55;100.00
10806;BME280;5455;53.224;6.000;2023-04-07T03:30:16;101384.94;;;7.52;100.00
10806;BME280;5455;53.224;6.000;2023-04-07T03:32:44;101393.16;;;7.52;100.00
10806;BME280;5455;53.224;6.000;2023-04-07T03:35:12;101390.44;;;7.52;100.00
10806;BME280;5455;53.224;6.000;2023-04-07T03:37:39;101393.63;;;7.54;100.00
10806;BME280;5455;53.224;6.000;2023-04-07T03:40:11;101389.31;;;7.53;100.00
10806;BME280;5455;53.224;6.000;2023-04-07T03:42:38;101392.84;;;7.54;100.00
10806;BME280;5455;53.224;6.000;2023-04-07T03:45:07;101398.34;;;7.54;100.00
10806;BME280;5455;53.224;6.000;2023-04-07T03:47:36;101390.91;;;7.54;100.00
10806;BME280;5455;53.224;6.000;2023-04-07T03:50:05;101391.53;;;7.51;100.00
10806;BME280;5455;53.224;6.000;2023-04-07T03:52:39;101396.72;;;7.53;100.00
10806;BME280;5455;53.224;6.000;2023-04-07T03:55:17;101388.03;;;7.51;100.00
10806;BME280;5455;53.224;6.000;2023-04-07T03:57:44;101402.22;;;7.53;100.00
10806;BME280;5455;53.224;6.000;2023-04-07T04:00:11;101402.22;;;7.53;100.00
10806;BME280;5455;53.224;6.000;2023-04-07T04:02:41;101405.25;;;7.51;100.00
10806;BME280;5455;53.224;6.000;2023-04-07T04:05:14;101398.66;;;7.52;100.00
10806;BME280;5455;53.224;6.000;2023-04-07T04:07:43;101405.78;;;7.53;100.00
10806;BME280;5455;53.224;6.000;2023-04-07T04:10:10;101404.63;;;7.54;100.00
10806;BME280;5455;53.224;6.000;2023-04-07T04:12:41;101415.59;;;7.54;100.00
10806;BME280;5455;53.224;6.000;2023-04-07T04:15:11;101417.22;;;7.55;100.00
10806;BME280;5455;53.224;6.000;2023-04-07T04:17:38;101415.28;;;7.56;100.00
10806;BME280;5455;53.224;6.000;2023-04-07T04:20:07;101416.41;;;7.55;100.00
10806;BME280;5455;53.224;6.000;2023-04-07T04:22:41;101417.22;;;7.55;100.00
10806;BME280;5455;53.224;6.000;2023-04-07T04:25:09;101415.28;;;7.56;100.00
10806;BME280;5455;53.224;6.000;2023-04-07T04:27:36;101420.78;;;7.56;100.00
10806;BME280;5455;53.224;6.000;2023-04-07T04:30:10;101417.22;;;7.55;100.00
10806;BME280;5455;53.224;6.000;2023-04-07T04:32:48;101421.25;;;7.58;100.00
10806;BME280;5455;53.224;6.000;2023-04-07T04:35:19;101425.59;;;7.59;100.00
10806;BME280;5455;53.224;6.000;2023-04-07T04:38:00;101431.91;;;7.59;100.00
10806;BME280;5455;53.224;6.000;2023-04-07T04:40:27;101429.16;;;7.59;100.00
10806;BME280;5455;53.224;6.000;2023-04-07T04:42:54;101432.22;;;7.58;100.00
10806;BME280;5455;53.224;6.000;2023-04-07T04:45:21;101430.28;;;7.58;100.00
10806;BME280;5455;53.224;6.000;2023-04-07T04:47:49;101439.00;;;7.60;100.00
10806;BME280;5455;53.224;6.000;2023-04-07T04:50:17;101439.50;;;7.62;100.00
10806;BME280;5455;53.224;6.000;2023-04-07T04:52:45;101440.31;;;7.63;100.00
10806;BME280;5455;53.224;6.000;2023-04-07T04:55:19;101450.31;;;7.59;100.00
10806;BME280;5455;53.224;6.000;2023-04-07T04:57:46;101449.19;;;7.60;100.00
10806;BME280;5455;53.224;6.000;2023-04-07T05:00:19;101448.38;;;7.59;100.00
10806;BME280;5455;53.224;6.000;2023-04-07T05:02:50;101450.63;;;7.57;100.00
10806;BME280;5455;53.224;6.000;2023-04-07T05:05:18;101457.56;;;7.55;100.00
10806;BME280;5455;53.224;6.000;2023-04-07T05:07:45;101459.03;;;7.52;100.00
10806;BME280;5455;53.224;6.000;2023-04-07T05:10:13;101463.38;;;7.53;100.00
10806;BME280;5455;53.224;6.000;2023-04-07T05:12:46;101459.38;;;7.51;100.00
10806;BME280;5455;53.224;6.000;2023-04-07T05:15:13;101467.25;;;7.52;100.00
10806;BME280;5455;53.224;6.000;2023-04-07T05:17:44;101470.00;;;7.52;100.00
10806;BME280;5455;53.224;6.000;2023-04-07T05:20:21;101474.66;;;7.52;100.00
10806;BME280;5455;53.224;6.000;2023-04-07T05:22:49;101475.66;;;7.47;100.00
10806;BME280;5455;53.224;6.000;2023-04-07T05:25:19;101478.41;;;7.47;100.00
10806;BME280;5455;53.224;6.000;2023-04-07T05:27:49;101469.66;;;7.45;100.00
10806;BME280;5455;53.224;6.000;2023-04-07T05:30:16;101473.38;;;7.49;100.00
10806;BME280;5455;53.224;6.000;2023-04-07T05:32:43;101471.75;;;7.48;100.00
10806;BME280;5455;53.224;6.000;2023-04-07T05:35:21;101477.59;;;7.47;100.00
10806;BME280;5455;53.224;6.000;2023-04-07T05:37:52;101479.22;;;7.48;100.00
10806;BME280;5455;53.224;6.000;2023-04-07T05:40:20;101490.00;;;7.53;100.00
10806;BME280;5455;53.224;6.000;2023-04-07T05:42:48;101480.00;;;7.48;100.00
10806;BME280;5455;53.224;6.000;2023-04-07T05:45:16;101494.03;;;7.55;100.00
10806;BME280;5455;53.224;6.000;2023-04-07T05:47:46;101492.13;;;7.56;100.00
10806;BME280;5455;53.224;6.000;2023-04-07T05:50:22;101497.59;;;7.56;100.00
10806;BME280;5455;53.224;6.000;2023-04-07T05:52:49;101499.06;;;7.62;100.00
10806;BME280;5455;53.224;6.000;2023-04-07T05:55:22;101504.84;;;7.60;100.00
10806;BME280;5455;53.224;6.000;2023-04-07T05:57:50;101511.50;;;7.59;100.00
10806;BME280;5455;53.224;6.000;2023-04-07T06:00:21;101507.47;;;7.57;100.00
10806;BME280;5455;53.224;6.000;2023-04-07T06:02:58;101512.94;;;7.57;100.00
10806;BME280;5455;53.224;6.000;2023-04-07T06:05:26;101524.88;;;7.61;100.00
10806;BME280;5455;53.224;6.000;2023-04-07T06:07:55;101509.22;;;7.61;100.00
10806;BME280;5455;53.224;6.000;2023-04-07T06:10:25;101519.56;;;7.64;100.00
10806;BME280;5455;53.224;6.000;2023-04-07T06:12:53;101533.75;;;7.66;100.00
10806;BME280;5455;53.224;6.000;2023-04-07T06:15:20;101537.31;;;7.67;100.00
10806;BME280;5455;53.224;6.000;2023-04-07T06:17:47;101533.75;;;7.66;100.00
10806;BME280;5455;53.224;6.000;2023-04-07T06:20:14;101537.94;;;7.64;100.00
10806;BME280;5455;53.224;6.000;2023-04-07T06:22:41;101542.63;;;7.63;100.00
10806;BME280;5455;53.224;6.000;2023-04-07T06:25:08;101543.13;;;7.65;100.00
10806;BME280;5455;53.224;6.000;2023-04-07T06:27:35;101552.97;;;7.66;100.00
10806;BME280;5455;53.224;6.000;2023-04-07T06:30:02;101548.78;;;7.69;100.00
10806;BME280;5455;53.224;6.000;2023-04-07T06:32:29;101549.44;;;7.74;100.00
10806;BME280;5455;53.224;6.000;2023-04-07T06:34:56;101554.75;;;7.80;100.00
10806;BME280;5455;53.224;6.000;2023-04-07T06:37:23;101551.66;;;7.81;100.00
10806;BME280;5455;53.224;6.000;2023-04-07T06:39:53;101553.47;;;7.86;100.00
10806;BME280;5455;53.224;6.000;2023-04-07T06:42:20;101561.69;;;7.86;100.00
10806;BME280;5455;53.224;6.000;2023-04-07T06:44:56;101558.31;;;7.89;100.00
10806;BME280;5455;53.224;6.000;2023-04-07T06:47:23;101564.91;;;7.88;100.00
10806;BME280;5455;53.224;6.000;2023-04-07T06:49:50;101575.25;;;7.91;100.00
10806;BME280;5455;53.224;6.000;2023-04-07T06:52:17;101571.06;;;7.93;100.00
10806;BME280;5455;53.224;6.000;2023-04-07T06:54:44;101578.50;;;7.93;100.00
10806;BME280;5455;53.224;6.000;2023-04-07T06:57:11;101581.25;;;7.93;100.00
10806;BME280;5455;53.224;6.000;2023-04-07T06:59:39;101572.69;;;7.94;100.00
10806;BME280;5455;53.224;6.000;2023-04-07T07:02:06;101580.59;;;7.96;100.00
10806;BME280;5455;53.224;6.000;2023-04-07T07:04:33;101574.47;;;7.99;100.00
10806;BME280;5455;53.224;6.000;2023-04-07T07:07:01;101579.31;;;8.02;100.00
10806;BME280;5455;53.224;6.000;2023-04-07T07:09:29;101584.97;;;8.14;100.00
10806;BME280;5455;53.224;6.000;2023-04-07T07:11:55;101580.09;;;8.19;100.00
10806;BME280;5455;53.224;6.000;2023-04-07T07:14:23;101579.94;;;8.16;100.00
10806;BME280;5455;53.224;6.000;2023-04-07T07:16:50;101584.31;;;8.17;100.00
10806;BME280;5455;53.224;6.000;2023-04-07T07:19:17;101584.97;;;8.31;100.00
10806;BME280;5455;53.224;6.000;2023-04-07T07:21:44;101591.06;;;8.45;100.00
10806;BME280;5455;53.224;6.000;2023-04-07T07:24:11;101591.56;;;8.39;100.00
10806;BME280;5455;53.224;6.000;2023-04-07T07:26:38;101599.50;;;8.40;100.00
10806;BME280;5455;53.224;6.000;2023-04-07T07:29:09;101602.91;;;8.37;100.00
10806;BME280;5455;53.224;6.000;2023-04-07T07:31:36;101607.28;;;8.38;100.00
10806;BME280;5455;53.224;6.000;2023-04-07T07:34:03;101613.19;;;8.57;100.00
10806;BME280;5455;53.224;6.000;2023-04-07T07:36:30;101620.44;;;8.70;100.00
10806;BME280;5455;53.224;6.000;2023-04-07T07:38:57;101631.91;;;8.81;100.00
10806;BME280;5455;53.224;6.000;2023-04-07T07:41:24;101632.84;;;8.94;100.00
10806;BME280;5455;53.224;6.000;2023-04-07T07:43:52;101632.53;;;8.95;100.00
10806;BME280;5455;53.224;6.000;2023-04-07T07:46:19;101640.63;;;8.92;100.00
10806;BME280;5455;53.224;6.000;2023-04-07T07:48:46;101642.41;;;8.88;100.00
10806;BME280;5455;53.224;6.000;2023-04-07T07:51:13;101645.00;;;8.84;100.00
10806;BME280;5455;53.224;6.000;2023-04-07T07:53:40;101646.78;;;8.89;100.00
10806;BME280;5455;53.224;6.000;2023-04-07T07:56:10;101650.47;;;8.93;100.00
10806;BME280;5455;53.224;6.000;2023-04-07T07:58:37;101651.63;;;8.92;100.00
10806;BME280;5455;53.224;6.000;2023-04-07T08:01:04;101657.78;;;8.89;100.00
10806;BME280;5455;53.224;6.000;2023-04-07T08:03:31;101668.78;;;8.89;100.00
10806;BME280;5455;53.224;6.000;2023-04-07T08:05:58;101672.31;;;8.98;100.00
10806;BME280;5455;53.224;6.000;2023-04-07T08:08:25;101673.25;;;9.02;100.00
10806;BME280;5455;53.224;6.000;2023-04-07T08:10:52;101677.44;;;9.08;100.00
10806;BME280;5455;53.224;6.000;2023-04-07T08:13:19;101682.81;;;9.04;100.00
10806;BME280;5455;53.224;6.000;2023-04-07T08:15:46;101684.72;;;9.12;100.00
10806;BME280;5455;53.224;6.000;2023-04-07T08:18:13;101687.94;;;9.14;100.00
10806;BME280;5455;53.224;6.000;2023-04-07T08:20:40;101685.13;;;9.31;100.00
10806;BME280;5455;53.224;6.000;2023-04-07T08:23:07;101686.22;;;9.39;100.00
10806;BME280;5455;53.224;6.000;2023-04-07T08:25:34;101693.38;;;9.40;100.00
10806;BME280;5455;53.224;6.000;2023-04-07T08:28:01;101694.03;;;9.37;100.00
10806;BME280;5455;53.224;6.000;2023-04-07T08:30:28;101692.69;;;9.43;100.00
10806;BME280;5455;53.224;6.000;2023-04-07T08:32:55;101699.09;;;9.56;100.00
10806;BME280;5455;53.224;6.000;2023-04-07T08:35:22;101702.66;;;9.85;100.00
10806;BME280;5455;53.224;6.000;2023-04-07T08:37:50;101708.34;;;10.10;100.00
10806;BME280;5455;53.224;6.000;2023-04-07T08:40:17;101703.34;;;10.32;100.00
10806;BME280;5455;53.224;6.000;2023-04-07T08:42:47;101697.84;;;10.53;100.00
10806;BME280;5455;53.224;6.000;2023-04-07T08:45:16;101707.50;;;10.59;100.00
10806;BME280;5455;53.224;6.000;2023-04-07T08:47:45;101710.53;;;10.66;100.00
10806;BME280;5455;53.224;6.000;2023-04-07T08:50:15;101718.09;;;10.90;100.00
10806;BME280;5455;53.224;6.000;2023-04-07T08:52:45;101720.03;;;10.89;100.00
10806;BME280;5455;53.224;6.000;2023-04-07T08:55:15;101720.28;;;10.84;100.00
10806;BME280;5455;53.224;6.000;2023-04-07T08:57:42;101723.22;;;10.79;100.00
10806;BME280;5455;53.224;6.000;2023-04-07T09:00:11;101732.81;;;10.94;100.00
10806;BME280;5455;53.224;6.000;2023-04-07T09:02:40;101722.41;;;10.79;100.00
10806;BME280;5455;53.224;6.000;2023-04-07T09:05:11;101727.81;;;10.75;100.00
10806;BME280;5455;53.224;6.000;2023-04-07T09:07:40;101730.84;;;10.94;100.00
10806;BME280;5455;53.224;6.000;2023-04-07T09:10:08;101728.59;;;10.96;100.00
10806;BME280;5455;53.224;6.000;2023-04-07T09:12:36;101741.66;;;10.87;100.00
10806;BME280;5455;53.224;6.000;2023-04-07T09:15:05;101740.09;;;10.98;100.00
10806;BME280;5455;53.224;6.000;2023-04-07T09:17:33;101746.31;;;11.07;100.00
10806;BME280;5455;53.224;6.000;2023-04-07T09:20:00;101745.84;;;11.05;100.00
10806;BME280;5455;53.224;6.000;2023-04-07T09:22:38;101742.03;;;10.98;100.00
10806;BME280;5455;53.224;6.000;2023-04-07T09:27:36;101739.31;;;11.10;100.00
10806;BME280;5455;53.224;6.000;2023-04-07T09:30:11;101737.09;;;11.03;100.00
10806;BME280;5455;53.224;6.000;2023-04-07T09:32:38;101747.41;;;10.94;100.00
10806;BME280;5455;53.224;6.000;2023-04-07T09:35:07;101747.41;;;10.94;100.00
10806;BME280;5455;53.224;6.000;2023-04-07T09:37:34;101743.00;;;11.14;100.00
10806;BME280;5455;53.224;6.000;2023-04-07T09:40:02;101756.50;;;11.28;100.00
10806;BME280;5455;53.224;6.000;2023-04-07T09:42:29;101756.78;;;11.02;100.00
10806;BME280;5455;53.224;6.000;2023-04-07T09:44:59;101759.72;;;10.97;100.00
10806;BME280;5455;53.224;6.000;2023-04-07T09:47:27;101756.13;;;10.84;100.00
10806;BME280;5455;53.224;6.000;2023-04-07T09:49:55;101757.88;;;10.89;100.00
10806;BME280;5455;53.224;6.000;2023-04-07T09:52:25;101765.00;;;10.90;100.00
10806;BME280;5455;53.224;6.000;2023-04-07T09:55:13;101770.47;;;10.78;100.00
10806;BME280;5455;53.224;6.000;2023-04-07T09:57:43;101770.97;;;10.92;100.00
10806;BME280;5455;53.224;6.000;2023-04-07T10:00:11;101764.47;;;11.41;100.00
10806;BME280;5455;53.224;6.000;2023-04-07T10:02:42;101748.94;;;11.49;100.00
10806;BME280;5455;53.224;6.000;2023-04-07T10:05:09;101773.88;;;11.85;100.00
10806;BME280;5455;53.224;6.000;2023-04-07T10:07:37;101775.72;;;11.93;100.00
10806;BME280;5455;53.224;6.000;2023-04-07T10:10:07;101766.84;;;12.00;100.00
10806;BME280;5455;53.224;6.000;2023-04-07T10:12:36;101783.31;;;12.21;100.00
10806;BME280;5455;53.224;6.000;2023-04-07T10:15:04;101781.44;;;12.37;100.00
10806;BME280;5455;53.224;6.000;2023-04-07T10:17:32;101778.91;;;12.32;100.00
10806;BME280;5455;53.224;6.000;2023-04-07T10:20:00;101782.41;;;12.17;100.00
10806;BME280;5455;53.224;6.000;2023-04-07T10:22:28;101784.69;;;12.27;100.00
10806;BME280;5455;53.224;6.000;2023-04-07T10:25:02;101785.50;;;12.27;100.00
10806;BME280;5455;53.224;6.000;2023-04-07T10:27:39;101793.38;;;12.53;100.00
10806;BME280;5455;53.224;6.000;2023-04-07T10:30:13;101789.75;;;12.37;100.00
10806;BME280;5455;53.224;6.000;2023-04-07T10:32:48;101798.06;;;12.00;100.00
10806;BME280;5455;53.224;6.000;2023-04-07T10:35:16;101800.94;;;11.80;100.00
10806;BME280;5455;53.224;6.000;2023-04-07T10:38:09;101804.03;;;11.78;100.00
10806;BME280;5455;53.224;6.000;2023-04-07T10:40:38;101801.94;;;11.75;100.00
10806;BME280;5455;53.224;6.000;2023-04-07T10:43:06;101801.56;;;11.65;100.00
10806;BME280;5455;53.224;6.000;2023-04-07T10:48:16;101809.44;;;11.99;100.00
10806;BME280;5455;53.224;6.000;2023-04-07T10:53:32;101814.53;;;12.21;100.00
10806;BME280;5455;53.224;6.000;2023-04-07T10:56:00;101818.09;;;12.22;100.00
10806;BME280;5455;53.224;6.000;2023-04-07T10:58:36;101814.88;;;12.20;100.00
10806;BME280;5455;53.224;6.000;2023-04-07T11:03:52;101826.50;;;12.25;100.00
10806;BME280;5455;53.224;6.000;2023-04-07T11:06:20;101830.53;;;12.28;100.00
10806;BME280;5455;53.224;6.000;2023-04-07T11:08:48;101834.56;;;12.30;100.00
10806;BME280;5455;53.224;6.000;2023-04-07T11:11:34;101832.63;;;12.31;100.00
10806;BME280;5455;53.224;6.000;2023-04-07T11:14:03;101837.22;;;12.39;100.00
10806;BME280;5455;53.224;6.000;2023-04-07T11:16:41;101836.88;;;12.40;100.00
10806;BME280;5455;53.224;6.000;2023-04-07T11:19:09;101840.22;;;12.22;100.00
10806;BME280;5455;53.224;6.000;2023-04-07T11:21:37;101841.59;;;12.28;100.00
10806;BME280;5455;53.224;6.000;2023-04-07T11:24:04;101838.59;;;12.45;100.00
10806;BME280;5455;53.224;6.000;2023-04-07T11:26:37;101843.09;;;12.13;100.00
10806;BME280;5455;53.224;6.000;2023-04-07T11:29:05;101851.94;;;11.82;100.00
10806;BME280;5455;53.224;6.000;2023-04-07T11:31:32;101852.44;;;11.63;100.00
10806;BME280;5455;53.224;6.000;2023-04-07T11:34:03;101848.75;;;11.59;100.00
10806;BME280;5455;53.224;6.000;2023-04-07T11:36:38;101852.19;;;11.89;100.00
10806;BME280;5455;53.224;6.000;2023-04-07T11:39:17;101852.66;;;12.52;100.00
10806;BME280;5455;53.224;6.000;2023-04-07T11:41:47;101852.94;;;12.87;100.00
10806;BME280;5455;53.224;6.000;2023-04-07T11:44:15;101862.50;;;12.89;100.00
10806;BME280;5455;53.224;6.000;2023-04-07T11:46:55;101862.47;;;12.37;100.00
10806;BME280;5455;53.224;6.000;2023-04-07T11:49:25;101865.41;;;11.84;100.00
10806;BME280;5455;53.224;6.000;2023-04-07T11:52:03;101868.41;;;11.58;100.00
10806;BME280;5455;53.224;6.000;2023-04-07T11:54:43;101866.28;;;11.43;100.00
10806;BME280;5455;53.224;6.000;2023-04-07T11:57:13;101862.25;;;11.40;100.00
10806;BME280;5455;53.224;6.000;2023-04-07T11:59:40;101865.28;;;11.80;100.00
10806;BME280;5455;53.224;6.000;2023-04-07T12:02:07;101870.41;;;12.39;100.00
10806;BME280;5455;53.224;6.000;2023-04-07T12:04:36;101876.94;;;12.83;100.00
10806;BME280;5455;53.224;6.000;2023-04-07T12:07:08;101884.72;;;13.05;100.00
10806;BME280;5455;53.224;6.000;2023-04-07T12:09:35;101881.41;;;12.87;100.00
10806;BME280;5455;53.224;6.000;2023-04-07T12:12:05;101883.88;;;12.77;100.00
10806;BME280;5455;53.224;6.000;2023-04-07T12:14:34;101884.28;;;12.91;100.00
10806;BME280;5455;53.224;6.000;2023-04-07T12:17:01;101886.84;;;12.71;100.00
10806;BME280;5455;53.224;6.000;2023-04-07T12:19:31;101893.66;;;12.62;100.00
10806;BME280;5455;53.224;6.000;2023-04-07T12:22:02;101892.97;;;12.53;100.00
10806;BME280;5455;53.224;6.000;2023-04-07T12:24:29;101894.97;;;12.52;100.00
10806;BME280;5455;53.224;6.000;2023-04-07T12:26:58;101897.13;;;12.59;100.00
10806;BME280;5455;53.224;6.000;2023-04-07T12:29:25;101899.09;;;12.70;100.00
10806;BME280;5455;53.224;6.000;2023-04-07T12:31:52;101885.34;;;12.86;100.00
10806;BME280;5455;53.224;6.000;2023-04-07T12:34:19;101897.06;;;13.07;100.00
10806;BME280;5455;53.224;6.000;2023-04-07T12:36:47;101899.63;;;13.12;100.00
10806;BME280;5455;53.224;6.000;2023-04-07T12:39:14;101904.63;;;13.35;100.00
10806;BME280;5455;53.224;6.000;2023-04-07T12:41:42;101901.78;;;13.47;100.00
10806;BME280;5455;53.224;6.000;2023-04-07T12:44:11;101899.94;;;13.51;100.00
10806;BME280;5455;53.224;6.000;2023-04-07T12:46:38;101911.53;;;13.68;100.00
10806;BME280;5455;53.224;6.000;2023-04-07T12:49:04;101905.16;;;13.68;100.00
10806;BME280;5455;53.224;6.000;2023-04-07T12:51:32;101905.16;;;13.68;100.00
10806;BME280;5455;53.224;6.000;2023-04-07T12:53:59;101913.06;;;13.97;100.00
10806;BME280;5455;53.224;6.000;2023-04-07T12:56:26;101910.59;;;14.23;100.00
10806;BME280;5455;53.224;6.000;2023-04-07T12:58:56;101913.00;;;14.25;100.00
10806;BME280;5455;53.224;6.000;2023-04-07T13:01:23;101914.91;;;14.21;100.00
10806;BME280;5455;53.224;6.000;2023-04-07T13:03:51;101913.63;;;14.18;100.00
10806;BME280;5455;53.224;6.000;2023-04-07T13:06:19;101922.09;;;14.38;100.00
10806;BME280;5455;53.224;6.000;2023-04-07T13:08:46;101918.91;;;14.70;100.00
10806;BME280;5455;53.224;6.000;2023-04-07T13:11:13;101922.13;;;14.72;100.00
10806;BME280;5455;53.224;6.000;2023-04-07T13:13:41;101919.53;;;14.79;100.00
10806;BME280;5455;53.224;6.000;2023-04-07T13:16:08;101922.03;;;14.84;100.00
10806;BME280;5455;53.224;6.000;2023-04-07T13:18:35;101931.53;;;14.83;100.00
10806;BME280;5455;53.224;6.000;2023-04-07T13:21:02;101927.25;;;15.05;100.00
10806;BME280;5455;53.224;6.000;2023-04-07T13:23:33;101929.69;;;14.56;100.00
10806;BME280;5455;53.224;6.000;2023-04-07T13:26:09;101924.09;;;14.09;100.00
10806;BME280;5455;53.224;6.000;2023-04-07T13:28:37;101927.25;;;14.39;100.00
10806;BME280;5455;53.224;6.000;2023-04-07T13:31:05;101930.66;;;14.48;100.00